Cashion, AZ (85329)

8:06 PM MST on August 28, 2015 (GMT -0700)
Crystal Gardens | | Change Station
CLOSE
Current Station
Personal Weather Station
Location: Avondale, AZ
Elevation: 997 ft
Nearby Weather Stations

Elev 997 ft 33.47 °N, 112.30 °W | Updated 8 minutes ago

Mostly Cloudy
Mostly Cloudy
100.2 °F
Feels Like 99 °F
N
0.0
Wind Variable Wind from SW

Today
High -- | Low -- °F
--% Chance of Precip.
Yesterday
High -- | Low -- °F
Precip. -- in
6:00 AM 6:59 PM
Waxing Gibbous, 99% visible
Pressure 29.77 in
Visibility 10.0 miles
Clouds Few 10000 ft
Scattered Clouds 20000 ft
Heat Index 99 °F
Dew Point 57 °F
Humidity 24%
Rainfall 0.00 in
Snow Depth Not available.
UV 0 out of 12
Pollen 5.00 out of 12
Air Quality Not available.
Flu Activity Not available.
METAR KGYR 290247Z 25005KT 10SM FEW100 SCT200 BKM250 38/13 A2977
Pressure 29.77 in
Visibility 10.0 miles
Clouds Few 10000 ft
Scattered Clouds 20000 ft
Heat Index 99 °F
Dew Point 57 °F
Humidity 24%
Rainfall 0.00 in
Snow Depth Not available.
UV 0 out of 12
Pollen 5.00 out of 12
Air Quality Not available.
Flu Activity Not available.
METAR KGYR 290247Z 25005KT 10SM FEW100 SCT200 BKM250 38/13 A2977

10-Day Weather Forecast

×

Almanac

Astronomy

Aug. 28, 2015 Rise Set
Actual Time
Civil Twilight
Nautical Twilight
Astronomical Twilight
Moon
Length of Visible Light
Length of Day
Tomorrow will be .
, % of the Moon is Illuminated

Today's Extremes

State Highs State Lows

Community

WunderPhotos

Upload Photos

1,850,593 photos uploaded!

WunderBlogs® & News

Nearby

Air Quality

  Air Quality AQ Index Pollutant
Not available.

Snow Depth

Station Depth Elevation

Earthquake Activity

City Distance Mag. Time & Date
Minimum magnitude displayed is 2.5.

Coastal Water Temperatures

Place Temperature

Stations

Nearby Weather Stations

Station Location Temp. Windchill Dew Point Humidity Wind Precip. Elev Updated Type